createdAt,value
2018-09-24T00:00:55.611Z,33.43
2018-09-24T00:03:26.985Z,30.87
2018-09-24T00:05:58.702Z,28.17
2018-09-24T00:08:29.877Z,28.70
2018-09-24T00:11:01.954Z,28.20
2018-09-24T00:13:33.393Z,26.40
2018-09-24T00:16:04.622Z,28.27
2018-09-24T00:18:36.448Z,27.70
2018-09-24T00:21:07.792Z,29.53
2018-09-24T00:23:39.310Z,31.00
2018-09-24T00:26:10.159Z,25.67
2018-09-24T00:28:41.783Z,27.30
2018-09-24T00:31:13.336Z,28.40
2018-09-24T00:33:44.577Z,27.07
2018-09-24T00:36:16.081Z,27.37
2018-09-24T00:38:46.761Z,26.97
2018-09-24T00:41:17.802Z,24.63
2018-09-24T00:43:49.222Z,31.27
2018-09-24T00:46:20.643Z,27.10
2018-09-24T00:48:51.800Z,26.53
2018-09-24T00:51:22.730Z,28.80
2018-09-24T00:53:53.966Z,31.43
2018-09-24T00:56:25.234Z,30.07
2018-09-24T00:58:56.336Z,32.73
2018-09-24T01:01:27.337Z,31.70
2018-09-24T01:03:59.188Z,28.60
2018-09-24T01:06:30.624Z,29.57
2018-09-24T01:09:02.270Z,30.80
2018-09-24T01:11:33.589Z,30.90
2018-09-24T01:14:04.818Z,25.23
2018-09-24T01:16:36.460Z,29.20
2018-09-24T01:19:07.964Z,28.47
2018-09-24T01:21:39.290Z,29.07
2018-09-24T01:24:10.847Z,30.37
2018-09-24T01:26:42.152Z,29.50
2018-09-24T01:29:13.581Z,30.67
2018-09-24T01:31:45.340Z,27.90
2018-09-24T01:34:17.007Z,28.80
2018-09-24T01:36:48.498Z,27.47
2018-09-24T01:39:20.160Z,28.80
2018-09-24T01:41:52.153Z,32.67
2018-09-24T01:44:23.724Z,34.20
2018-09-24T01:46:56.262Z,30.03
2018-09-24T01:49:27.376Z,28.40
2018-09-24T01:51:58.619Z,30.03
2018-09-24T01:54:31.270Z,29.10
2018-09-24T01:57:02.345Z,29.17
2018-09-24T01:59:33.311Z,28.00
2018-09-24T02:02:04.491Z,31.43
2018-09-24T02:04:36.339Z,31.13
2018-09-24T02:07:07.590Z,29.90
2018-09-24T02:09:38.761Z,30.00
2018-09-24T02:12:09.821Z,31.23
2018-09-24T02:14:40.965Z,32.80
2018-09-24T02:17:18.280Z,28.37
2018-09-24T02:19:50.471Z,29.03
2018-09-24T02:22:29.149Z,29.27
2018-09-24T02:25:00.741Z,33.17
2018-09-24T02:27:32.259Z,29.87
2018-09-24T02:30:03.153Z,29.60
2018-09-24T02:32:34.197Z,31.17
2018-09-24T02:35:05.869Z,29.83
2018-09-24T02:37:36.953Z,27.80
2018-09-24T02:40:08.150Z,34.60
2018-09-24T02:42:39.702Z,30.93
2018-09-24T02:45:10.707Z,32.70
2018-09-24T02:47:41.978Z,35.43
2018-09-24T02:50:13.727Z,31.23
2018-09-24T02:52:44.643Z,34.27
2018-09-24T02:55:17.770Z,33.13
2018-09-24T02:57:49.468Z,29.73
2018-09-24T03:00:22.404Z,36.00
2018-09-24T03:02:53.955Z,33.13
2018-09-24T03:05:25.997Z,29.13
2018-09-24T03:07:57.803Z,33.03
2018-09-24T03:10:29.732Z,31.13
2018-09-24T03:13:01.705Z,36.80
2018-09-24T03:15:41.843Z,29.03
2018-09-24T03:18:12.996Z,31.17
2018-09-24T03:20:45.582Z,34.10
2018-09-24T03:23:17.008Z,33.87
2018-09-24T03:25:48.947Z,30.13
2018-09-24T03:28:20.485Z,31.97
2018-09-24T03:30:52.724Z,32.27
2018-09-24T03:33:24.065Z,34.20
2018-09-24T03:35:56.815Z,31.10
2018-09-24T03:38:28.595Z,31.43
2018-09-24T03:41:00.012Z,31.47
2018-09-24T03:43:31.130Z,30.70
2018-09-24T03:46:03.796Z,31.83
2018-09-24T03:48:35.129Z,31.10
2018-09-24T03:51:07.079Z,32.83
2018-09-24T03:53:38.784Z,32.27
2018-09-24T03:56:09.775Z,48.70
2018-09-24T03:58:41.722Z,46.77
2018-09-24T04:01:11.897Z,50.73
2018-09-24T04:03:44.339Z,34.20
2018-09-24T04:06:19.565Z,42.17
2018-09-24T04:08:55.219Z,37.07
2018-09-24T04:11:31.112Z,35.77
2018-09-24T04:14:18.811Z,35.87
2018-09-24T04:17:06.609Z,33.73
2018-09-24T04:19:43.270Z,31.03
2018-09-24T04:22:20.052Z,35.83
2018-09-24T04:24:55.452Z,29.73
2018-09-24T04:27:32.117Z,38.20
2018-09-24T04:30:07.838Z,31.33
2018-09-24T04:32:43.111Z,35.67
2018-09-24T04:35:18.609Z,33.33
2018-09-24T04:37:54.210Z,33.57
2018-09-24T04:40:29.827Z,37.77
2018-09-24T04:43:04.948Z,34.27
2018-09-24T04:45:40.706Z,37.50
2018-09-24T04:48:16.273Z,39.33
2018-09-24T04:50:51.991Z,32.63
2018-09-24T04:53:27.296Z,28.53
2018-09-24T04:56:04.408Z,40.17
2018-09-24T04:58:41.136Z,33.97
2018-09-24T05:01:16.595Z,33.83
2018-09-24T05:03:51.745Z,33.63
2018-09-24T05:06:27.160Z,32.90
2018-09-24T05:09:02.764Z,36.47
2018-09-24T05:11:38.458Z,35.37
2018-09-24T05:14:13.504Z,41.97
2018-09-24T05:16:48.652Z,39.67
2018-09-24T05:19:24.177Z,39.27
2018-09-24T05:22:00.199Z,41.17
2018-09-24T05:24:35.640Z,41.13
2018-09-24T05:27:11.073Z,58.90
2018-09-24T05:29:46.785Z,47.63
2018-09-24T05:32:21.976Z,66.27
2018-09-24T05:34:57.455Z,49.23
2018-09-24T05:37:32.896Z,42.43
2018-09-24T05:40:08.280Z,32.57
2018-09-24T05:42:44.988Z,38.87
2018-09-24T05:45:20.381Z,43.40
2018-09-24T05:47:56.068Z,34.50
2018-09-24T05:50:31.765Z,32.27
2018-09-24T05:53:07.164Z,30.13
2018-09-24T05:55:42.275Z,33.83
2018-09-24T05:58:17.531Z,30.73
2018-09-24T06:00:52.965Z,33.53
2018-09-24T06:03:28.210Z,41.30
2018-09-24T06:06:03.812Z,33.40
2018-09-24T06:08:39.421Z,34.53
2018-09-24T06:11:14.718Z,35.70
2018-09-24T06:13:49.988Z,37.23
2018-09-24T06:16:32.927Z,36.30
2018-09-24T06:19:08.371Z,36.40
2018-09-24T06:21:44.017Z,33.43
2018-09-24T06:24:19.474Z,28.23
2018-09-24T06:26:55.260Z,32.13
2018-09-24T06:29:30.971Z,35.20
2018-09-24T06:32:06.460Z,33.00
2018-09-24T06:34:41.790Z,37.63
2018-09-24T06:37:17.584Z,32.93
2018-09-24T06:39:52.781Z,34.03
2018-09-24T06:42:28.047Z,34.37
2018-09-24T06:45:03.213Z,32.07
2018-09-24T06:47:38.465Z,29.97
2018-09-24T06:50:13.570Z,29.17
2018-09-24T06:52:48.381Z,30.17
2018-09-24T06:55:23.563Z,28.60
2018-09-24T06:57:58.825Z,29.30
2018-09-24T07:00:33.810Z,30.77
2018-09-24T07:03:08.885Z,38.37
2018-09-24T07:05:44.275Z,31.47
2018-09-24T07:08:19.389Z,41.77
2018-09-24T07:10:54.564Z,34.50
2018-09-24T07:13:29.462Z,29.07
2018-09-24T07:16:04.650Z,26.60
2018-09-24T07:18:39.580Z,28.47
2018-09-24T07:21:14.662Z,27.00
2018-09-24T07:23:49.732Z,25.10
2018-09-24T07:26:24.845Z,28.77
2018-09-24T07:29:00.009Z,38.33
2018-09-24T07:31:35.091Z,35.63
2018-09-24T07:34:10.043Z,34.07
2018-09-24T07:36:45.081Z,32.80
2018-09-24T07:39:20.290Z,37.13
2018-09-24T07:41:55.338Z,30.87
2018-09-24T07:44:30.331Z,27.43
2018-09-24T07:47:05.295Z,30.30
2018-09-24T07:49:40.339Z,25.20
2018-09-24T07:52:15.670Z,27.47
2018-09-24T07:54:50.947Z,32.63
2018-09-24T07:57:26.137Z,26.87
2018-09-24T08:00:01.454Z,27.53
2018-09-24T08:02:36.364Z,27.30
2018-09-24T08:05:11.809Z,26.17
2018-09-24T08:07:47.013Z,27.20
2018-09-24T08:10:22.314Z,23.90
2018-09-24T08:12:57.395Z,25.73
2018-09-24T08:15:32.270Z,33.07
2018-09-24T08:18:07.509Z,24.10
2018-09-24T08:20:42.658Z,27.87
2018-09-24T08:23:17.993Z,24.10
2018-09-24T08:25:53.188Z,24.73
2018-09-24T08:28:28.335Z,24.23
2018-09-24T08:31:03.582Z,28.83
2018-09-24T08:33:38.532Z,29.03
2018-09-24T08:36:13.757Z,42.77
2018-09-24T08:38:48.893Z,36.20
2018-09-24T08:41:24.037Z,33.50
2018-09-24T08:43:59.089Z,36.77
2018-09-24T08:46:34.189Z,38.07
2018-09-24T08:49:09.297Z,34.83
2018-09-24T08:51:44.284Z,50.00
2018-09-24T08:54:19.319Z,32.77
2018-09-24T08:56:54.637Z,25.07
2018-09-24T08:59:29.625Z,29.57
2018-09-24T09:02:04.808Z,27.47
2018-09-24T09:04:39.764Z,31.40
2018-09-24T09:07:15.095Z,70.80
2018-09-24T09:09:50.310Z,205.03
2018-09-24T09:12:25.574Z,24.53
2018-09-24T09:15:00.510Z,24.67
2018-09-24T09:17:35.793Z,25.53
2018-09-24T09:20:11.398Z,23.47
2018-09-24T09:22:46.815Z,27.20
2018-09-24T09:25:21.863Z,25.97
2018-09-24T09:27:56.962Z,25.07
2018-09-24T09:30:32.393Z,24.27
2018-09-24T09:33:07.763Z,28.30
2018-09-24T09:35:42.947Z,27.10
2018-09-24T09:38:18.136Z,27.10
2018-09-24T09:40:53.455Z,24.87
2018-09-24T09:43:28.707Z,26.13
2018-09-24T09:46:03.970Z,26.00
2018-09-24T09:48:39.058Z,28.03
2018-09-24T09:51:14.427Z,24.33
2018-09-24T09:53:49.218Z,23.27
2018-09-24T09:56:24.294Z,23.93
2018-09-24T09:58:59.512Z,22.23
2018-09-24T10:01:34.736Z,22.43
2018-09-24T10:04:09.752Z,20.50
2018-09-24T10:06:44.974Z,22.03
2018-09-24T10:09:20.347Z,21.07
2018-09-24T10:11:55.484Z,21.63
2018-09-24T10:14:30.402Z,22.97
2018-09-24T10:17:05.672Z,19.80
2018-09-24T10:19:40.819Z,27.23
2018-09-24T10:22:15.959Z,32.00
2018-09-24T10:24:51.244Z,20.27
2018-09-24T10:27:26.278Z,26.87
2018-09-24T10:30:01.258Z,20.27
2018-09-24T10:32:36.235Z,20.53
2018-09-24T10:35:11.488Z,21.13
2018-09-24T10:37:46.508Z,21.10
2018-09-24T10:40:21.413Z,22.43
2018-09-24T10:42:56.640Z,22.50
2018-09-24T10:45:31.776Z,21.67
2018-09-24T10:48:06.969Z,25.03
2018-09-24T10:50:42.270Z,24.40
2018-09-24T10:53:17.183Z,19.90
2018-09-24T10:55:52.258Z,21.27
2018-09-24T10:58:27.327Z,22.63
2018-09-24T11:01:02.462Z,20.53
2018-09-24T11:03:37.394Z,18.30
2018-09-24T11:06:12.597Z,19.33
2018-09-24T11:08:47.603Z,18.63
2018-09-24T11:11:22.692Z,25.17
2018-09-24T11:13:57.681Z,19.43
2018-09-24T11:16:32.869Z,18.93
2018-09-24T11:19:07.720Z,16.48
2018-09-24T11:21:42.640Z,17.95
2018-09-24T11:24:17.880Z,19.37
2018-09-24T11:26:52.946Z,18.33
2018-09-24T11:29:28.019Z,17.10
2018-09-24T11:32:03.004Z,17.42
2018-09-24T11:34:37.869Z,19.80
2018-09-24T11:37:12.675Z,19.25
2018-09-24T11:39:47.867Z,18.20
2018-09-24T11:42:22.939Z,16.97
2018-09-24T11:44:57.946Z,16.17
2018-09-24T11:47:32.901Z,17.65
2018-09-24T11:50:08.005Z,17.55
2018-09-24T11:52:43.044Z,19.35
2018-09-24T11:55:18.013Z,17.20
2018-09-24T11:57:53.209Z,17.57
2018-09-24T12:00:28.242Z,17.17
2018-09-24T12:03:03.196Z,21.27
2018-09-24T12:05:38.620Z,16.77
2018-09-24T12:08:13.702Z,16.42
2018-09-24T12:10:48.953Z,20.35
2018-09-24T12:13:23.950Z,19.10
2018-09-24T12:15:58.990Z,17.67
2018-09-24T12:18:34.188Z,20.95
2018-09-24T12:21:09.187Z,23.85
2018-09-24T12:23:44.543Z,17.02
2018-09-24T12:26:19.654Z,15.53
2018-09-24T12:28:54.794Z,17.73
2018-09-24T12:31:29.901Z,20.15
2018-09-24T12:34:04.728Z,15.63
2018-09-24T12:36:39.727Z,15.88
2018-09-24T12:39:14.694Z,19.62
2018-09-24T12:41:49.760Z,15.93
2018-09-24T12:44:25.010Z,17.82
2018-09-24T12:46:59.989Z,16.50
2018-09-24T12:49:34.970Z,16.10
2018-09-24T12:52:10.225Z,15.13
2018-09-24T12:54:45.166Z,61.13
2018-09-24T12:57:20.106Z,15.53
2018-09-24T12:59:55.098Z,15.83
2018-09-24T13:02:30.012Z,15.90
2018-09-24T13:05:05.032Z,15.30
2018-09-24T13:07:40.222Z,15.58
2018-09-24T13:10:15.363Z,16.35
2018-09-24T13:12:50.319Z,15.15
2018-09-24T13:15:25.276Z,16.20
2018-09-24T13:18:00.442Z,16.62
2018-09-24T13:20:35.545Z,15.78
2018-09-24T13:23:10.597Z,17.85
2018-09-24T13:25:45.630Z,15.93
2018-09-24T13:28:21.040Z,21.10
2018-09-24T13:30:56.332Z,21.33
2018-09-24T13:33:31.233Z,15.40
2018-09-24T13:36:06.092Z,16.35
2018-09-24T13:38:41.163Z,18.27
2018-09-24T13:41:16.198Z,16.65
2018-09-24T13:43:51.460Z,17.20
2018-09-24T13:46:26.553Z,16.55
2018-09-24T13:49:01.918Z,16.55
2018-09-24T13:51:36.992Z,16.55
2018-09-24T13:54:12.082Z,15.85
2018-09-24T13:56:47.114Z,19.30
2018-09-24T13:59:22.271Z,29.52
2018-09-24T14:01:57.485Z,24.52
2018-09-24T14:04:32.422Z,18.77
2018-09-24T14:07:07.395Z,18.30
2018-09-24T14:09:42.659Z,15.90
2018-09-24T14:12:17.924Z,20.72
2018-09-24T14:14:52.968Z,16.82
2018-09-24T14:17:27.962Z,20.12
2018-09-24T14:20:03.083Z,21.93
2018-09-24T14:22:38.078Z,17.15
2018-09-24T14:25:13.515Z,16.20
2018-09-24T14:27:48.760Z,18.37
2018-09-24T14:30:23.875Z,17.82
2018-09-24T14:32:58.785Z,18.77
2018-09-24T14:35:33.857Z,16.55
2018-09-24T14:38:09.187Z,15.50
2018-09-24T14:40:44.280Z,17.12
2018-09-24T14:43:19.526Z,16.75
2018-09-24T14:45:54.566Z,32.78
2018-09-24T14:48:29.706Z,49.73
2018-09-24T14:51:05.020Z,39.90
2018-09-24T14:53:40.014Z,32.83
2018-09-24T14:56:14.939Z,40.23
2018-09-24T14:58:50.138Z,29.60
2018-09-24T15:01:25.148Z,28.20
2018-09-24T15:04:00.178Z,36.77
2018-09-24T15:06:35.337Z,24.60
2018-09-24T15:09:11.729Z,24.30
2018-09-24T15:11:46.937Z,26.03
2018-09-24T15:14:21.805Z,23.27
2018-09-24T15:16:56.770Z,26.37
2018-09-24T15:19:31.859Z,22.23
2018-09-24T15:22:07.035Z,21.67
2018-09-24T15:24:42.028Z,21.70
2018-09-24T15:27:17.025Z,22.57
2018-09-24T15:29:52.237Z,22.53
2018-09-24T15:32:27.250Z,19.57
2018-09-24T15:35:02.243Z,20.83
2018-09-24T15:37:37.361Z,23.77
2018-09-24T15:40:12.400Z,20.87
2018-09-24T15:42:47.412Z,28.10
2018-09-24T15:45:22.449Z,31.10
2018-09-24T15:47:57.460Z,24.40
2018-09-24T15:50:32.410Z,23.97
2018-09-24T15:53:07.389Z,26.53
2018-09-24T15:55:42.212Z,19.17
2018-09-24T15:58:17.306Z,19.60
2018-09-24T16:00:52.314Z,26.93
2018-09-24T16:03:27.302Z,28.10
2018-09-24T16:06:02.299Z,33.33
2018-09-24T16:08:37.322Z,23.93
2018-09-24T16:11:12.549Z,36.07
2018-09-24T16:13:47.500Z,18.27
2018-09-24T16:16:22.370Z,25.07
2018-09-24T16:18:57.441Z,16.43
2018-09-24T16:21:44.687Z,30.17
2018-09-24T16:24:31.318Z,21.20
2018-09-24T16:27:06.513Z,10.57
2018-09-24T16:29:41.647Z,14.33
2018-09-24T16:32:17.033Z,18.90
2018-09-24T16:34:52.022Z,24.77
2018-09-24T16:37:27.309Z,16.10
2018-09-24T16:40:02.559Z,16.97
2018-09-24T16:42:37.564Z,16.23
2018-09-24T16:45:13.021Z,16.17
2018-09-24T16:47:48.041Z,13.10
2018-09-24T16:50:23.262Z,18.23
2018-09-24T16:52:58.205Z,12.40
2018-09-24T16:55:33.116Z,12.97
2018-09-24T16:58:08.442Z,20.93
2018-09-24T17:00:43.695Z,21.10
2018-09-24T17:03:19.009Z,9.47
2018-09-24T17:05:54.407Z,9.63
2018-09-24T17:08:29.859Z,6.70
2018-09-24T17:11:04.893Z,9.73
2018-09-24T17:13:39.926Z,8.73
2018-09-24T17:16:14.992Z,12.10
2018-09-24T17:18:50.071Z,4.53
2018-09-24T17:21:25.198Z,12.00
2018-09-24T17:24:00.481Z,21.40
2018-09-24T17:26:35.971Z,18.03
2018-09-24T17:29:11.383Z,9.00
2018-09-24T17:31:46.712Z,12.17
2018-09-24T17:34:21.582Z,7.03
2018-09-24T17:36:56.574Z,12.47
2018-09-24T17:39:31.701Z,10.73
2018-09-24T17:42:07.263Z,7.53
2018-09-24T17:44:42.336Z,9.70
2018-09-24T17:47:17.333Z,9.77
2018-09-24T17:49:52.377Z,6.70
2018-09-24T17:52:27.379Z,6.37
2018-09-24T17:55:02.431Z,6.93
2018-09-24T17:57:37.488Z,7.83
2018-09-24T18:00:13.198Z,3.40
2018-09-24T18:02:49.226Z,5.07
2018-09-24T18:05:24.530Z,9.03
2018-09-24T18:08:00.708Z,3.87
2018-09-24T18:10:36.130Z,8.03
2018-09-24T18:13:11.908Z,6.93
2018-09-24T18:15:47.538Z,3.93
2018-09-24T18:18:23.470Z,2.77
2018-09-24T18:20:59.153Z,6.40
2018-09-24T18:23:34.704Z,4.23
2018-09-24T18:26:10.122Z,5.70
2018-09-24T18:28:45.518Z,7.23
2018-09-24T18:31:21.365Z,5.37
2018-09-24T18:33:56.805Z,4.53
2018-09-24T18:36:32.089Z,7.10
2018-09-24T18:39:07.639Z,3.83
2018-09-24T18:41:43.566Z,3.10
2018-09-24T18:44:19.113Z,2.87
2018-09-24T18:46:55.094Z,4.00
2018-09-24T18:49:30.683Z,11.00
2018-09-24T18:52:06.359Z,26.30
2018-09-24T18:54:41.572Z,3.33
2018-09-24T18:57:16.638Z,4.00
2018-09-24T18:59:52.563Z,5.30
2018-09-24T19:02:28.059Z,3.67
2018-09-24T19:05:03.284Z,3.13
2018-09-24T19:07:38.929Z,7.57
2018-09-24T19:10:14.533Z,7.70
2018-09-24T19:12:49.556Z,3.20
2018-09-24T19:15:24.690Z,6.67
2018-09-24T19:18:00.160Z,5.53
2018-09-24T19:20:35.806Z,6.27
2018-09-24T19:23:11.257Z,5.17
2018-09-24T19:25:46.723Z,6.90
2018-09-24T19:28:22.271Z,3.60
2018-09-24T19:30:57.741Z,4.50
2018-09-24T19:33:33.036Z,6.33
2018-09-24T19:36:08.235Z,6.43
2018-09-24T19:38:43.734Z,4.37
2018-09-24T19:41:19.254Z,6.40
2018-09-24T19:43:54.702Z,8.13
2018-09-24T19:46:30.081Z,10.67
2018-09-24T19:49:05.260Z,4.43
2018-09-24T19:51:40.369Z,6.90
2018-09-24T19:54:15.510Z,5.07
2018-09-24T19:56:50.629Z,4.20
2018-09-24T19:59:26.881Z,4.10
2018-09-24T20:02:02.307Z,3.17
2018-09-24T20:04:37.314Z,5.53
2018-09-24T20:07:12.997Z,3.47
2018-09-24T20:09:48.144Z,3.40
2018-09-24T20:12:23.453Z,2.63
2018-09-24T20:14:58.604Z,7.77
2018-09-24T20:17:33.667Z,3.47
2018-09-24T20:20:08.872Z,5.17
2018-09-24T20:22:44.192Z,5.97
2018-09-24T20:25:19.681Z,6.63
2018-09-24T20:27:54.867Z,7.40
2018-09-24T20:30:30.172Z,3.50
2018-09-24T20:33:05.360Z,4.87
2018-09-24T20:35:40.406Z,7.10
2018-09-24T20:38:15.852Z,4.30
2018-09-24T20:40:51.122Z,6.43
2018-09-24T20:43:26.724Z,4.17
2018-09-24T20:46:02.180Z,3.53
2018-09-24T20:48:37.591Z,7.23
2018-09-24T20:51:12.996Z,4.03
2018-09-24T20:53:48.376Z,5.87
2018-09-24T20:56:23.612Z,6.67
2018-09-24T20:58:59.151Z,9.17
2018-09-24T21:01:34.381Z,4.07
2018-09-24T21:04:09.695Z,11.00
2018-09-24T21:06:44.991Z,6.53
2018-09-24T21:09:21.041Z,6.33
2018-09-24T21:11:56.230Z,6.27
2018-09-24T21:14:31.418Z,4.33
2018-09-24T21:17:06.688Z,5.07
2018-09-24T21:19:42.286Z,4.90
2018-09-24T21:22:17.687Z,3.93
2018-09-24T21:24:53.082Z,4.50
2018-09-24T21:27:28.219Z,4.30
2018-09-24T21:30:03.498Z,5.33
2018-09-24T21:32:38.830Z,6.17
2018-09-24T21:35:14.180Z,6.40
2018-09-24T21:37:49.395Z,3.70
2018-09-24T21:40:24.825Z,6.70
2018-09-24T21:43:00.383Z,10.30
2018-09-24T21:45:35.624Z,6.20
2018-09-24T21:48:10.865Z,8.27
2018-09-24T21:50:46.294Z,6.03
2018-09-24T21:53:21.339Z,4.10
2018-09-24T21:55:56.494Z,5.57
2018-09-24T21:58:32.126Z,5.73
2018-09-24T22:01:07.499Z,4.03
2018-09-24T22:03:42.963Z,4.97
2018-09-24T22:06:18.161Z,4.57
2018-09-24T22:08:53.471Z,4.33
2018-09-24T22:11:28.722Z,5.33
2018-09-24T22:14:04.092Z,4.23
2018-09-24T22:16:39.234Z,4.50
2018-09-24T22:19:14.391Z,5.57
2018-09-24T22:21:49.911Z,4.67
2018-09-24T22:24:25.262Z,3.50
2018-09-24T22:27:00.610Z,2.37
2018-09-24T22:29:35.828Z,2.30
2018-09-24T22:32:11.370Z,6.73
2018-09-24T22:34:47.140Z,4.03
2018-09-24T22:37:22.279Z,2.00
2018-09-24T22:39:57.706Z,7.57
2018-09-24T22:42:32.953Z,3.73
2018-09-24T22:45:08.421Z,4.67
2018-09-24T22:47:43.673Z,4.03
2018-09-24T22:50:19.160Z,2.80
2018-09-24T22:52:54.059Z,2.40
2018-09-24T22:55:29.258Z,3.60
2018-09-24T22:58:04.801Z,2.60
2018-09-24T23:00:39.980Z,1.90
2018-09-24T23:03:15.284Z,4.90
2018-09-24T23:05:50.442Z,2.17
2018-09-24T23:08:25.898Z,4.60
2018-09-24T23:11:01.095Z,3.27
2018-09-24T23:13:36.261Z,1.30
2018-09-24T23:16:11.396Z,5.70
2018-09-24T23:18:46.966Z,1.93
2018-09-24T23:21:22.359Z,1.30
2018-09-24T23:23:57.606Z,9.50
2018-09-24T23:26:34.218Z,3.47
2018-09-24T23:29:09.397Z,1.13
2018-09-24T23:31:44.795Z,1.00
2018-09-24T23:34:20.223Z,6.83
2018-09-24T23:36:55.288Z,5.67
2018-09-24T23:39:30.631Z,5.03
2018-09-24T23:42:05.790Z,3.03
2018-09-24T23:44:40.959Z,2.70
2018-09-24T23:47:16.533Z,2.50
2018-09-24T23:49:51.776Z,2.07
2018-09-24T23:52:27.016Z,3.07
2018-09-24T23:55:02.453Z,1.30
2018-09-24T23:57:37.654Z,1.10
